createdAt,value
2018-03-06T00:01:12.196Z,99.90
2018-03-06T00:03:40.687Z,99.90
2018-03-06T00:06:09.159Z,99.90
2018-03-06T00:08:37.488Z,99.90
2018-03-06T00:11:05.963Z,99.90
2018-03-06T00:13:34.296Z,99.90
2018-03-06T00:16:03.140Z,99.90
2018-03-06T00:18:32.191Z,99.90
2018-03-06T00:21:00.444Z,99.90
2018-03-06T00:23:29.085Z,99.90
2018-03-06T00:25:57.421Z,99.90
2018-03-06T00:28:25.756Z,99.90
2018-03-06T00:30:54.180Z,99.90
2018-03-06T00:33:23.475Z,99.90
2018-03-06T00:35:51.835Z,99.90
2018-03-06T00:38:21.028Z,99.90
2018-03-06T00:40:49.306Z,99.90
2018-03-06T00:43:16.809Z,99.90
2018-03-06T00:45:46.108Z,99.90
2018-03-06T00:48:15.466Z,99.90
2018-03-06T00:50:44.221Z,99.90
2018-03-06T00:53:13.232Z,99.90
2018-03-06T00:55:43.716Z,99.90
2018-03-06T00:58:12.818Z,99.90
2018-03-06T01:00:41.504Z,99.90
2018-03-06T01:03:11.395Z,99.90
2018-03-06T01:05:41.136Z,99.90
2018-03-06T01:08:10.996Z,99.90
2018-03-06T01:10:39.453Z,99.90
2018-03-06T01:13:07.844Z,99.90
2018-03-06T01:15:35.984Z,99.90
2018-03-06T01:18:04.376Z,99.90
2018-03-06T01:20:33.472Z,99.90
2018-03-06T01:23:01.793Z,99.90
2018-03-06T01:25:30.187Z,99.90
2018-03-06T01:27:58.475Z,99.90
2018-03-06T01:30:26.820Z,99.90
2018-03-06T01:32:55.179Z,99.90
2018-03-06T01:35:23.504Z,99.90
2018-03-06T01:37:51.917Z,99.90
2018-03-06T01:40:20.252Z,99.90
2018-03-06T01:42:48.594Z,99.90
2018-03-06T01:45:16.985Z,99.90
2018-03-06T01:47:45.328Z,99.90
2018-03-06T01:50:13.660Z,99.90
2018-03-06T01:52:42.022Z,99.90
2018-03-06T01:55:10.362Z,99.90
2018-03-06T01:57:38.687Z,99.90
2018-03-06T02:00:07.043Z,99.90
2018-03-06T02:02:35.425Z,99.90
2018-03-06T02:05:03.754Z,99.90
2018-03-06T02:07:32.091Z,99.90
2018-03-06T02:10:00.473Z,99.90
2018-03-06T02:12:28.826Z,99.90
2018-03-06T02:14:57.323Z,99.90
2018-03-06T02:17:25.676Z,99.90
2018-03-06T02:19:54.024Z,99.90
2018-03-06T02:22:22.829Z,99.90
2018-03-06T02:24:51.173Z,99.90
2018-03-06T02:27:21.021Z,99.90
2018-03-06T02:29:49.704Z,99.90
2018-03-06T02:32:17.801Z,99.90
2018-03-06T02:34:46.255Z,99.90
2018-03-06T02:37:14.724Z,99.90
2018-03-06T02:39:44.012Z,99.90
2018-03-06T02:42:12.449Z,99.90
2018-03-06T02:44:40.852Z,99.90
2018-03-06T02:47:09.258Z,99.90
2018-03-06T02:49:37.900Z,99.90
2018-03-06T02:52:06.255Z,99.90
2018-03-06T02:54:34.595Z,99.90
2018-03-06T02:57:02.960Z,99.90
2018-03-06T02:59:31.327Z,99.90
2018-03-06T03:01:59.673Z,99.90
2018-03-06T03:04:28.055Z,99.90
2018-03-06T03:06:56.476Z,99.90
2018-03-06T03:09:24.817Z,99.90
2018-03-06T03:11:53.200Z,99.90
2018-03-06T03:14:21.548Z,99.90
2018-03-06T03:16:50.644Z,99.90
2018-03-06T03:19:19.036Z,99.90
2018-03-06T03:21:47.801Z,99.90
2018-03-06T03:24:16.652Z,99.90
2018-03-06T03:26:45.063Z,99.90
2018-03-06T03:29:13.405Z,99.90
2018-03-06T03:31:41.773Z,99.90
2018-03-06T03:34:10.111Z,99.90
2018-03-06T03:36:38.601Z,99.90
2018-03-06T03:39:06.956Z,99.90
2018-03-06T03:41:35.304Z,99.90
2018-03-06T03:44:03.723Z,99.90
2018-03-06T03:46:32.452Z,99.90
2018-03-06T03:49:00.786Z,99.90
2018-03-06T03:51:29.168Z,99.90
2018-03-06T03:53:58.279Z,99.90
2018-03-06T03:56:26.980Z,99.90
2018-03-06T03:58:55.806Z,99.90
2018-03-06T04:01:24.256Z,99.90
2018-03-06T04:03:52.600Z,99.90
2018-03-06T04:06:22.568Z,99.90
2018-03-06T04:08:50.923Z,99.90
2018-03-06T04:11:19.308Z,99.90
2018-03-06T04:13:47.661Z,99.90
2018-03-06T04:16:17.867Z,99.90
2018-03-06T04:18:47.040Z,99.90
2018-03-06T04:21:15.457Z,99.90
2018-03-06T04:23:43.804Z,99.90
2018-03-06T04:26:12.178Z,99.90
2018-03-06T04:28:40.520Z,99.90
2018-03-06T04:31:09.660Z,99.90
2018-03-06T04:33:38.000Z,99.90
2018-03-06T04:36:07.032Z,99.90
2018-03-06T04:38:35.423Z,99.90
2018-03-06T04:41:04.936Z,99.90
2018-03-06T04:43:34.092Z,99.90
2018-03-06T04:46:02.436Z,99.90
2018-03-06T04:48:30.769Z,99.90
2018-03-06T04:50:59.148Z,99.90
2018-03-06T04:53:28.264Z,99.90
2018-03-06T04:55:56.608Z,99.90
2018-03-06T04:58:25.088Z,99.90
2018-03-06T05:00:53.436Z,99.90
2018-03-06T05:03:21.834Z,99.90
2018-03-06T05:05:50.671Z,99.90
2018-03-06T05:08:19.073Z,99.90
2018-03-06T05:10:47.447Z,99.90
2018-03-06T05:13:15.780Z,99.90
2018-03-06T05:15:44.799Z,99.90
2018-03-06T05:18:13.135Z,99.90
2018-03-06T05:20:41.509Z,99.90
2018-03-06T05:23:09.919Z,99.90
2018-03-06T05:25:38.271Z,99.90
2018-03-06T05:28:06.624Z,99.90
2018-03-06T05:30:35.292Z,99.90
2018-03-06T05:33:03.640Z,99.90
2018-03-06T05:35:31.980Z,99.90
2018-03-06T05:38:00.354Z,99.90
2018-03-06T05:40:28.859Z,99.90
2018-03-06T05:42:57.268Z,99.90
2018-03-06T05:45:25.663Z,99.90
2018-03-06T05:47:54.054Z,99.90
2018-03-06T05:50:22.227Z,99.90
2018-03-06T05:52:56.797Z,99.90
2018-03-06T05:55:25.199Z,99.90
2018-03-06T05:57:53.600Z,99.90
2018-03-06T06:00:21.960Z,99.90
2018-03-06T06:02:50.362Z,99.90
2018-03-06T06:05:18.703Z,99.90
2018-03-06T06:07:47.087Z,99.90
2018-03-06T06:10:15.488Z,99.90
2018-03-06T06:12:43.834Z,99.90
2018-03-06T06:15:12.177Z,99.90
2018-03-06T06:17:40.782Z,99.90
2018-03-06T06:20:09.534Z,99.90
2018-03-06T06:22:38.079Z,99.90
2018-03-06T06:25:06.703Z,99.90
2018-03-06T06:27:35.097Z,99.90
2018-03-06T06:30:03.433Z,99.90
2018-03-06T06:32:31.804Z,99.90
2018-03-06T06:35:00.182Z,99.90
2018-03-06T06:37:28.685Z,99.90
2018-03-06T06:39:57.792Z,99.90
2018-03-06T06:42:26.170Z,99.90
2018-03-06T06:44:54.505Z,99.90
2018-03-06T06:47:23.158Z,99.90
2018-03-06T06:49:51.612Z,99.90
2018-03-06T06:52:20.416Z,99.90
2018-03-06T06:54:48.752Z,99.90
2018-03-06T06:57:17.726Z,99.90
2018-03-06T06:59:46.055Z,99.90
2018-03-06T07:02:14.380Z,99.90
2018-03-06T07:04:42.765Z,99.90
2018-03-06T07:07:11.168Z,99.90
2018-03-06T07:09:40.084Z,99.90
2018-03-06T07:12:08.410Z,99.90
2018-03-06T07:14:36.720Z,99.90
2018-03-06T07:17:05.148Z,99.90
2018-03-06T07:19:33.471Z,99.90
2018-03-06T07:22:01.792Z,99.90
2018-03-06T07:24:30.154Z,99.90
2018-03-06T07:26:58.482Z,99.90
2018-03-06T07:29:28.116Z,99.90
2018-03-06T07:31:57.217Z,99.90
2018-03-06T07:34:25.579Z,99.90
2018-03-06T07:36:53.917Z,99.90
2018-03-06T07:39:22.228Z,99.90
2018-03-06T07:41:50.663Z,99.90
2018-03-06T07:44:18.916Z,99.90
2018-03-06T07:46:48.064Z,99.90
2018-03-06T07:49:16.372Z,99.90
2018-03-06T07:51:44.675Z,99.90
2018-03-06T07:54:14.977Z,99.90
2018-03-06T07:56:43.294Z,99.90
2018-03-06T07:59:11.652Z,99.90
2018-03-06T08:01:40.157Z,99.90
2018-03-06T08:04:09.598Z,99.90
2018-03-06T08:06:37.912Z,99.90
2018-03-06T08:09:06.295Z,99.90
2018-03-06T08:11:34.619Z,99.90
2018-03-06T08:14:02.940Z,99.90
2018-03-06T08:16:31.377Z,99.90
2018-03-06T08:18:59.692Z,99.90
2018-03-06T08:21:27.999Z,99.90
2018-03-06T08:23:56.351Z,99.90
2018-03-06T08:26:24.704Z,99.90
2018-03-06T08:28:54.002Z,99.90
2018-03-06T08:31:22.364Z,99.90
2018-03-06T08:33:50.684Z,99.90
2018-03-06T08:36:19.188Z,99.90
2018-03-06T08:38:47.506Z,99.90
2018-03-06T08:41:15.731Z,99.90
2018-03-06T08:43:44.077Z,99.90
2018-03-06T08:46:12.388Z,99.90
2018-03-06T08:48:41.483Z,99.90
2018-03-06T08:51:11.316Z,99.90
2018-03-06T08:53:39.636Z,99.90
2018-03-06T08:56:07.947Z,99.90
2018-03-06T08:58:37.064Z,99.90
2018-03-06T09:01:05.384Z,99.90
2018-03-06T09:03:33.711Z,99.90
2018-03-06T09:06:02.070Z,99.90
2018-03-06T09:08:30.391Z,99.90
2018-03-06T09:10:58.740Z,99.90
2018-03-06T09:13:27.111Z,99.90
2018-03-06T09:15:56.300Z,99.90
2018-03-06T09:18:24.715Z,99.90
2018-03-06T09:20:53.028Z,99.90
2018-03-06T09:23:21.374Z,99.90
2018-03-06T09:25:49.881Z,99.90
2018-03-06T09:28:18.192Z,99.90
2018-03-06T09:30:46.556Z,99.90
2018-03-06T09:33:14.877Z,99.90
2018-03-06T09:35:43.340Z,99.90
2018-03-06T09:38:12.144Z,99.90
2018-03-06T09:40:40.469Z,99.90
2018-03-06T09:43:08.836Z,99.90
2018-03-06T09:45:37.152Z,99.90
2018-03-06T09:48:05.519Z,99.90
2018-03-06T09:50:33.955Z,99.60
2018-03-06T09:53:02.280Z,99.80
2018-03-06T09:55:30.601Z,99.90
2018-03-06T09:57:58.953Z,99.40
2018-03-06T10:00:28.036Z,95.40
2018-03-06T10:02:56.411Z,95.40
2018-03-06T10:05:25.820Z,96.40
2018-03-06T10:07:54.227Z,98.10
2018-03-06T10:10:23.180Z,99.40
2018-03-06T10:12:51.546Z,99.90
2018-03-06T10:15:20.230Z,99.90
2018-03-06T10:17:48.347Z,99.90
2018-03-06T10:20:16.664Z,99.20
2018-03-06T10:22:45.092Z,98.50
2018-03-06T10:25:13.420Z,97.90
2018-03-06T10:27:42.835Z,96.90
2018-03-06T10:30:12.623Z,97.10
2018-03-06T10:32:41.417Z,96.70
2018-03-06T10:35:10.152Z,96.30
2018-03-06T10:37:39.244Z,96.30
2018-03-06T10:40:07.573Z,96.20
2018-03-06T10:42:37.516Z,97.60
2018-03-06T10:45:06.260Z,97.50
2018-03-06T10:47:34.590Z,97.70
2018-03-06T10:50:02.914Z,97.80
2018-03-06T10:52:31.616Z,97.50
2018-03-06T10:54:59.941Z,96.70
2018-03-06T10:57:28.356Z,95.10
2018-03-06T10:59:56.716Z,93.40
2018-03-06T11:02:33.041Z,96.10
2018-03-06T11:05:01.369Z,97.10
2018-03-06T11:07:29.789Z,95.60
2018-03-06T11:09:58.176Z,94.80
2018-03-06T11:12:26.820Z,96.30
2018-03-06T11:14:55.186Z,95.40
2018-03-06T11:17:24.700Z,96.20
2018-03-06T11:19:53.297Z,96.20
2018-03-06T11:22:21.612Z,93.80
2018-03-06T11:24:49.958Z,91.50
2018-03-06T11:27:18.314Z,90.20
2018-03-06T11:29:46.988Z,88.40
2018-03-06T11:32:15.304Z,89.80
2018-03-06T11:34:43.711Z,89.50
2018-03-06T11:37:12.028Z,91.80
2018-03-06T11:39:41.173Z,90.30
2018-03-06T11:42:09.536Z,90.30
2018-03-06T11:44:38.675Z,88.10
2018-03-06T11:47:06.994Z,88.10
2018-03-06T11:49:35.615Z,87.00
2018-03-06T11:52:03.936Z,88.50
2018-03-06T11:54:32.259Z,89.80
2018-03-06T11:57:00.692Z,89.90
2018-03-06T11:59:29.406Z,90.10
2018-03-06T12:01:57.921Z,89.40
2018-03-06T12:04:27.128Z,89.80
2018-03-06T12:06:55.944Z,85.00
2018-03-06T12:09:25.036Z,87.40
2018-03-06T12:11:53.356Z,83.50
2018-03-06T12:14:21.930Z,88.10
2018-03-06T12:16:50.317Z,92.10
2018-03-06T12:19:18.627Z,91.20
2018-03-06T12:21:47.488Z,89.30
2018-03-06T12:24:16.724Z,84.30
2018-03-06T12:26:47.901Z,78.90
2018-03-06T12:29:17.040Z,75.90
2018-03-06T12:31:45.407Z,75.90
2018-03-06T12:34:14.457Z,86.00
2018-03-06T12:36:43.436Z,92.50
2018-03-06T12:39:12.217Z,92.80
2018-03-06T12:41:40.982Z,93.90
2018-03-06T12:44:09.421Z,92.20
2018-03-06T12:46:37.743Z,92.10
2018-03-06T12:49:06.768Z,92.10
2018-03-06T12:51:35.669Z,91.90
2018-03-06T12:54:04.104Z,91.80
2018-03-06T12:56:32.238Z,90.30
2018-03-06T12:59:00.598Z,88.60
2018-03-06T13:01:31.137Z,83.90
2018-03-06T13:04:00.252Z,80.50
2018-03-06T13:06:29.420Z,88.50
2018-03-06T13:08:57.892Z,89.00
2018-03-06T13:11:26.218Z,90.00
2018-03-06T13:13:54.951Z,90.40
2018-03-06T13:16:23.282Z,92.30
2018-03-06T13:18:51.665Z,93.20
2018-03-06T13:21:20.400Z,94.10
2018-03-06T13:23:48.740Z,93.30
2018-03-06T13:26:17.071Z,92.50
2018-03-06T13:28:46.311Z,90.60
2018-03-06T13:31:15.051Z,87.90
2018-03-06T13:33:44.148Z,84.50
2018-03-06T13:36:12.476Z,84.50
2018-03-06T13:38:40.837Z,85.60
2018-03-06T13:41:09.661Z,83.40
2018-03-06T13:43:37.981Z,82.60
2018-03-06T13:46:06.341Z,82.50
2018-03-06T13:48:36.681Z,84.30
2018-03-06T13:51:05.615Z,85.80
2018-03-06T13:53:34.386Z,85.50
2018-03-06T13:56:03.520Z,90.60
2018-03-06T13:58:32.432Z,90.60
2018-03-06T14:01:00.751Z,91.60
2018-03-06T14:03:29.104Z,91.90
2018-03-06T14:05:57.407Z,93.60
2018-03-06T14:08:26.481Z,94.30
2018-03-06T14:10:55.196Z,94.30
2018-03-06T14:13:23.516Z,94.40
2018-03-06T14:15:52.554Z,94.80
2018-03-06T14:18:21.062Z,94.10
2018-03-06T14:20:49.732Z,94.10
2018-03-06T14:23:18.419Z,94.50
2018-03-06T14:25:47.512Z,96.20
2018-03-06T14:28:16.037Z,96.20
2018-03-06T14:30:44.400Z,96.90
2018-03-06T14:33:12.724Z,96.40
2018-03-06T14:35:42.564Z,97.60
2018-03-06T14:38:12.781Z,97.60
2018-03-06T14:40:41.453Z,98.90
2018-03-06T14:43:10.301Z,99.90
2018-03-06T14:45:39.327Z,99.90
2018-03-06T14:48:08.983Z,99.90
2018-03-06T14:50:38.041Z,99.90
2018-03-06T14:53:06.361Z,99.90
2018-03-06T14:55:35.868Z,99.90
2018-03-06T14:58:03.993Z,99.90
2018-03-06T15:00:32.322Z,99.90
2018-03-06T15:03:00.696Z,99.90
2018-03-06T15:05:29.016Z,99.90
2018-03-06T15:07:59.372Z,99.90
2018-03-06T15:10:27.987Z,99.90
2018-03-06T15:12:56.636Z,99.90
2018-03-06T15:15:25.068Z,99.90
2018-03-06T15:17:53.380Z,99.90
2018-03-06T15:20:21.804Z,99.90
2018-03-06T15:22:50.116Z,99.90
2018-03-06T15:25:18.428Z,99.90
2018-03-06T15:27:47.396Z,99.90
2018-03-06T15:30:15.707Z,99.90
2018-03-06T15:32:44.037Z,99.90
2018-03-06T15:35:12.404Z,99.90
2018-03-06T15:37:40.723Z,99.90
2018-03-06T15:40:09.059Z,99.90
2018-03-06T15:42:37.400Z,99.90
2018-03-06T15:45:05.480Z,99.90
2018-03-06T15:47:33.855Z,99.90
2018-03-06T15:50:02.178Z,99.90
2018-03-06T15:52:30.491Z,99.90
2018-03-06T15:54:59.603Z,99.90
2018-03-06T15:57:28.019Z,99.90
2018-03-06T15:59:59.405Z,99.90
2018-03-06T16:02:28.349Z,99.90
2018-03-06T16:04:57.710Z,99.90
2018-03-06T16:07:26.026Z,99.90
2018-03-06T16:09:54.383Z,99.90
2018-03-06T16:12:22.775Z,99.90
2018-03-06T16:14:51.081Z,99.90
2018-03-06T16:17:19.420Z,99.90
2018-03-06T16:19:53.588Z,99.90
2018-03-06T16:22:22.189Z,99.90
2018-03-06T16:24:50.752Z,99.90
2018-03-06T16:27:19.066Z,99.90
2018-03-06T16:29:48.184Z,99.90
2018-03-06T16:32:16.549Z,99.90
2018-03-06T16:34:45.197Z,99.90
2018-03-06T16:37:13.981Z,99.90
2018-03-06T16:39:43.276Z,99.90
2018-03-06T16:42:11.679Z,99.90
2018-03-06T16:44:40.000Z,99.90
2018-03-06T16:47:08.364Z,99.90
2018-03-06T16:49:36.677Z,99.90
2018-03-06T16:52:04.994Z,99.90
2018-03-06T16:54:33.364Z,99.90
2018-03-06T16:57:01.733Z,99.90
2018-03-06T16:59:31.824Z,99.90
2018-03-06T17:01:59.956Z,99.90
2018-03-06T17:04:29.443Z,99.90
2018-03-06T17:06:57.760Z,99.90
2018-03-06T17:09:27.148Z,99.90
2018-03-06T17:11:56.779Z,99.90
2018-03-06T17:14:27.380Z,99.90
2018-03-06T17:16:56.563Z,99.90
2018-03-06T17:19:24.888Z,99.90
2018-03-06T17:21:53.316Z,99.90
2018-03-06T17:24:21.628Z,99.90
2018-03-06T17:26:49.936Z,99.90
2018-03-06T17:29:18.317Z,99.90
2018-03-06T17:31:47.035Z,99.90
2018-03-06T17:34:15.348Z,99.90
2018-03-06T17:36:43.729Z,99.90
2018-03-06T17:39:12.048Z,99.90
2018-03-06T17:41:40.362Z,99.90
2018-03-06T17:44:08.729Z,99.90
2018-03-06T17:46:37.808Z,99.90
2018-03-06T17:49:06.116Z,99.90
2018-03-06T17:51:35.144Z,99.90
2018-03-06T17:54:03.533Z,99.90
2018-03-06T17:56:32.120Z,99.90
2018-03-06T17:59:00.545Z,99.90
2018-03-06T18:01:28.981Z,99.90
2018-03-06T18:03:58.094Z,99.90
2018-03-06T18:06:26.413Z,99.90
2018-03-06T18:08:55.611Z,99.90
2018-03-06T18:11:24.049Z,99.90
2018-03-06T18:13:53.837Z,99.90
2018-03-06T18:16:22.449Z,99.90
2018-03-06T18:18:50.848Z,99.90
2018-03-06T18:21:19.340Z,99.90
2018-03-06T18:23:47.672Z,99.90
2018-03-06T18:26:16.535Z,99.90
2018-03-06T18:28:44.851Z,99.90
2018-03-06T18:31:13.173Z,99.90
2018-03-06T18:33:42.052Z,99.90
2018-03-06T18:36:11.129Z,99.90
2018-03-06T18:38:39.518Z,99.90
2018-03-06T18:41:07.832Z,99.90
2018-03-06T18:43:36.289Z,99.90
2018-03-06T18:46:04.648Z,99.90
2018-03-06T18:48:35.110Z,99.90
2018-03-06T18:51:12.944Z,99.90
2018-03-06T18:53:41.504Z,99.90
2018-03-06T18:56:09.834Z,99.90
2018-03-06T18:58:39.056Z,99.90
2018-03-06T19:14:43.909Z,99.90
2018-03-06T19:17:12.355Z,99.90
2018-03-06T19:19:41.336Z,99.90
2018-03-06T19:22:09.702Z,99.90
2018-03-06T19:24:38.016Z,99.90
2018-03-06T19:27:06.328Z,99.90
2018-03-06T19:29:35.967Z,99.90
2018-03-06T19:32:04.292Z,99.90
2018-03-06T19:34:32.618Z,99.90
2018-03-06T19:37:01.183Z,99.90
2018-03-06T19:39:29.504Z,99.90
2018-03-06T19:41:59.694Z,99.90
2018-03-06T19:44:28.008Z,99.90
2018-03-06T19:46:57.059Z,99.90
2018-03-06T19:49:25.671Z,99.90
2018-03-06T19:51:53.976Z,99.90
2018-03-06T19:54:22.724Z,99.90
2018-03-06T19:56:51.328Z,99.90
2018-03-06T19:59:20.252Z,99.90
2018-03-06T20:01:48.648Z,99.90
2018-03-06T20:04:18.232Z,99.90
2018-03-06T20:06:46.570Z,99.90
2018-03-06T20:09:15.723Z,99.90
2018-03-06T20:11:44.044Z,99.90
2018-03-06T20:14:12.432Z,99.90
2018-03-06T20:16:41.306Z,99.90
2018-03-06T20:32:50.440Z,99.90
2018-03-06T20:35:19.556Z,99.90
2018-03-06T20:37:48.712Z,99.90
2018-03-06T20:40:22.620Z,99.90
2018-03-06T20:42:50.900Z,99.90
2018-03-06T20:45:19.295Z,99.90
2018-03-06T20:47:47.755Z,99.90
2018-03-06T20:50:16.545Z,99.90
2018-03-06T20:52:50.268Z,99.90
2018-03-06T20:55:18.972Z,99.90
2018-03-06T20:57:47.358Z,99.90
2018-03-06T21:00:17.532Z,99.90
2018-03-06T21:02:46.144Z,99.90
2018-03-06T21:05:14.446Z,99.90
2018-03-06T21:07:43.697Z,99.90
2018-03-06T21:10:12.008Z,99.90
2018-03-06T21:12:41.090Z,99.90
2018-03-06T21:15:09.471Z,99.90
2018-03-06T21:17:37.896Z,99.90
2018-03-06T21:20:08.376Z,99.90
2018-03-06T21:22:39.644Z,99.90
2018-03-06T21:25:07.987Z,99.90
2018-03-06T21:27:36.353Z,99.90
2018-03-06T21:30:05.408Z,99.90
2018-03-06T21:32:34.140Z,99.90
2018-03-06T21:35:03.227Z,99.90
2018-03-06T21:37:31.560Z,99.90
2018-03-06T21:40:00.737Z,99.90
2018-03-06T21:42:29.209Z,99.90
2018-03-06T21:44:57.576Z,99.90
2018-03-06T21:47:26.573Z,99.90
2018-03-06T21:49:55.677Z,99.90
2018-03-06T21:52:24.005Z,99.90
2018-03-06T21:54:52.534Z,99.90
2018-03-06T21:57:20.929Z,99.90
2018-03-06T21:59:50.620Z,99.90
2018-03-06T22:02:19.049Z,99.90
2018-03-06T22:04:48.633Z,99.90
2018-03-06T22:07:17.707Z,99.90
2018-03-06T22:09:46.305Z,99.90
2018-03-06T22:12:15.016Z,99.90
2018-03-06T22:14:43.342Z,99.90
2018-03-06T22:17:11.625Z,99.90
2018-03-06T22:19:39.936Z,99.90
2018-03-06T22:22:09.060Z,99.90
2018-03-06T22:24:37.421Z,99.90
2018-03-06T22:27:05.731Z,99.90
2018-03-06T22:29:34.036Z,99.90
2018-03-06T22:32:02.408Z,99.90
2018-03-06T22:34:30.792Z,99.90
2018-03-06T22:36:59.245Z,99.90
2018-03-06T22:39:27.564Z,99.90
2018-03-06T22:41:55.891Z,99.90
2018-03-06T22:44:24.229Z,99.90
2018-03-06T22:46:52.685Z,99.90
2018-03-06T22:49:21.369Z,99.90
2018-03-06T22:51:49.710Z,99.90
2018-03-06T22:54:18.090Z,99.90
2018-03-06T22:56:46.511Z,99.90
2018-03-06T22:59:14.724Z,99.90
2018-03-06T23:01:43.149Z,99.90
2018-03-06T23:04:11.609Z,99.90
2018-03-06T23:06:40.085Z,99.90
2018-03-06T23:09:08.589Z,99.90
2018-03-06T23:11:37.261Z,99.90
2018-03-06T23:14:06.304Z,99.90
2018-03-06T23:16:34.637Z,99.90
2018-03-06T23:19:02.984Z,99.90
2018-03-06T23:21:31.301Z,99.90
2018-03-06T23:23:59.612Z,99.90
2018-03-06T23:26:27.997Z,99.90
2018-03-06T23:28:56.364Z,99.90
2018-03-06T23:31:24.676Z,99.90
2018-03-06T23:33:53.077Z,99.90
2018-03-06T23:36:21.407Z,99.90
2018-03-06T23:38:49.745Z,99.90
2018-03-06T23:41:18.152Z,99.90
2018-03-06T23:43:46.468Z,99.90
2018-03-06T23:46:14.781Z,99.90
2018-03-06T23:48:43.144Z,99.90
2018-03-06T23:51:11.452Z,99.90
2018-03-06T23:53:39.766Z,99.90
2018-03-06T23:56:08.894Z,99.90
2018-03-06T23:58:37.207Z,99.90
